createdAt,value
2023-02-09T00:01:21.245Z,82.54
2023-02-09T00:03:49.088Z,82.96
2023-02-09T00:06:18.966Z,83.07
2023-02-09T00:08:47.443Z,83.19
2023-02-09T00:11:43.707Z,81.90
2023-02-09T00:14:12.064Z,81.33
2023-02-09T00:16:39.690Z,81.73
2023-02-09T00:19:07.360Z,81.38
2023-02-09T00:21:34.973Z,81.90
2023-02-09T00:24:02.809Z,82.65
2023-02-09T00:26:30.739Z,82.29
2023-02-09T00:28:58.407Z,82.14
2023-02-09T00:31:26.285Z,83.07
2023-02-09T00:33:54.145Z,82.85
2023-02-09T00:36:21.709Z,81.78
2023-02-09T00:38:49.416Z,82.21
2023-02-09T00:41:17.190Z,82.27
2023-02-09T00:43:45.075Z,82.42
2023-02-09T00:46:12.746Z,83.19
2023-02-09T00:48:40.695Z,82.35
2023-02-09T00:51:08.192Z,82.18
2023-02-09T00:53:36.758Z,82.58
2023-02-09T00:56:04.781Z,82.49
2023-02-09T00:58:33.431Z,82.21
2023-02-09T01:01:01.019Z,81.87
2023-02-09T01:03:29.221Z,81.25
2023-02-09T01:05:58.831Z,81.84
2023-02-09T01:08:27.002Z,82.23
2023-02-09T01:10:54.546Z,82.40
2023-02-09T01:13:22.567Z,82.15
2023-02-09T01:15:50.372Z,81.85
2023-02-09T01:18:17.963Z,81.42
2023-02-09T01:20:45.974Z,82.38
2023-02-09T01:23:15.658Z,82.43
2023-02-09T01:25:44.581Z,81.66
2023-02-09T01:28:12.189Z,81.18
2023-02-09T01:30:40.397Z,80.52
2023-02-09T01:33:08.230Z,80.52
2023-02-09T01:35:35.826Z,81.95
2023-02-09T01:38:03.354Z,81.24
2023-02-09T01:40:31.294Z,80.45
2023-02-09T01:42:58.895Z,80.36
2023-02-09T01:45:59.167Z,80.07
2023-02-09T01:48:29.071Z,81.01
2023-02-09T01:51:00.597Z,80.65
2023-02-09T01:53:28.417Z,80.31
2023-02-09T01:55:58.555Z,82.10
2023-02-09T01:58:26.156Z,83.46
2023-02-09T02:00:54.002Z,82.82
2023-02-09T02:03:23.562Z,83.31
2023-02-09T02:05:53.102Z,83.48
2023-02-09T02:08:21.226Z,83.31
2023-02-09T02:10:48.769Z,82.19
2023-02-09T02:13:16.465Z,81.61
2023-02-09T02:16:10.350Z,81.98
2023-02-09T02:18:59.945Z,82.65
2023-02-09T02:21:55.815Z,82.31
2023-02-09T02:24:45.499Z,82.68
2023-02-09T02:27:34.776Z,83.11
2023-02-09T02:30:05.444Z,83.55
2023-02-09T02:32:54.922Z,83.08
2023-02-09T02:35:34.304Z,83.16
2023-02-09T02:38:16.493Z,83.27
2023-02-09T02:40:54.368Z,82.44
2023-02-09T02:43:34.031Z,81.80
2023-02-09T02:46:06.923Z,80.92
2023-02-09T02:48:44.926Z,82.50
2023-02-09T02:51:21.466Z,82.60
2023-02-09T02:53:52.842Z,82.87
2023-02-09T02:56:46.203Z,82.42
2023-02-09T02:59:17.205Z,82.13
2023-02-09T03:02:04.791Z,82.52
2023-02-09T03:04:32.681Z,82.44
2023-02-09T03:07:00.429Z,82.38
2023-02-09T03:09:28.031Z,82.62
2023-02-09T03:12:21.990Z,82.92
2023-02-09T03:15:07.216Z,83.79
2023-02-09T03:18:10.348Z,82.79
2023-02-09T03:20:47.347Z,82.21
2023-02-09T03:23:41.009Z,82.09
2023-02-09T03:26:11.879Z,82.45
2023-02-09T03:28:39.817Z,82.53
2023-02-09T03:31:07.826Z,82.40
2023-02-09T03:33:36.693Z,82.56
2023-02-09T03:36:08.951Z,82.32
2023-02-09T03:38:36.737Z,82.73
2023-02-09T03:41:05.908Z,83.13
2023-02-09T03:43:57.825Z,82.92
2023-02-09T03:46:26.018Z,82.50
2023-02-09T03:48:54.864Z,82.22
2023-02-09T03:51:22.530Z,81.47
2023-02-09T03:53:50.090Z,81.46
2023-02-09T03:56:17.834Z,82.47
2023-02-09T03:58:45.721Z,82.65
2023-02-09T04:01:13.486Z,81.51
2023-02-09T04:03:41.161Z,81.39
2023-02-09T04:06:10.258Z,82.30
2023-02-09T04:08:38.091Z,82.24
2023-02-09T04:11:06.524Z,81.27
2023-02-09T04:13:35.208Z,81.59
2023-02-09T04:16:02.836Z,81.45
2023-02-09T04:18:30.574Z,81.25
2023-02-09T04:20:58.224Z,81.60
2023-02-09T04:23:25.874Z,81.82
2023-02-09T04:25:53.669Z,82.54
2023-02-09T04:28:21.438Z,81.94
2023-02-09T04:30:55.523Z,81.55
2023-02-09T04:33:24.053Z,81.27
2023-02-09T04:35:52.470Z,82.34
2023-02-09T04:38:20.768Z,82.11
2023-02-09T04:40:49.195Z,82.47
2023-02-09T04:43:17.328Z,82.68
2023-02-09T04:45:45.031Z,82.35
2023-02-09T04:48:15.248Z,82.33
2023-02-09T04:50:43.341Z,81.63
2023-02-09T04:53:11.507Z,82.45
2023-02-09T04:55:39.828Z,83.22
2023-02-09T04:58:26.112Z,83.62
2023-02-09T05:00:55.514Z,83.16
2023-02-09T05:03:24.724Z,83.26
2023-02-09T05:06:01.026Z,83.39
2023-02-09T05:08:29.406Z,82.81
2023-02-09T05:10:57.255Z,83.03
2023-02-09T05:13:25.365Z,82.54
2023-02-09T05:15:53.171Z,82.61
2023-02-09T05:18:20.922Z,82.66
2023-02-09T05:20:48.984Z,82.75
2023-02-09T05:23:17.075Z,83.03
2023-02-09T05:25:46.064Z,82.89
2023-02-09T05:28:13.951Z,82.35
2023-02-09T05:30:42.126Z,82.33
2023-02-09T05:33:09.890Z,82.97
2023-02-09T05:35:37.607Z,82.76
2023-02-09T05:38:05.386Z,82.67
2023-02-09T05:40:33.530Z,82.38
2023-02-09T05:43:02.595Z,81.21
2023-02-09T05:45:31.020Z,81.55
2023-02-09T05:47:58.673Z,81.18
2023-02-09T05:50:27.986Z,81.25
2023-02-09T05:52:58.392Z,81.49
2023-02-09T05:55:26.270Z,81.22
2023-02-09T05:57:53.951Z,81.53
2023-02-09T06:00:25.341Z,82.45
2023-02-09T06:02:55.106Z,82.24
2023-02-09T06:05:22.743Z,81.23
2023-02-09T06:07:50.887Z,81.13
2023-02-09T06:10:18.878Z,81.37
2023-02-09T06:12:48.817Z,81.03
2023-02-09T06:15:16.782Z,81.22
2023-02-09T06:17:49.237Z,80.84
2023-02-09T06:20:17.248Z,81.75
2023-02-09T06:22:44.842Z,80.84
2023-02-09T06:25:12.970Z,80.56
2023-02-09T06:27:40.773Z,80.47
2023-02-09T06:30:09.274Z,80.73
2023-02-09T06:32:37.239Z,80.79
2023-02-09T06:35:05.319Z,80.63
2023-02-09T06:37:33.481Z,80.72
2023-02-09T06:40:01.071Z,81.01
2023-02-09T06:42:43.990Z,81.14
2023-02-09T06:45:12.911Z,80.89
2023-02-09T06:47:41.985Z,80.82
2023-02-09T06:50:10.516Z,80.04
2023-02-09T06:52:39.024Z,80.39
2023-02-09T06:55:07.665Z,80.76
2023-02-09T06:57:37.142Z,80.35
2023-02-09T07:00:05.843Z,80.23
2023-02-09T07:02:33.819Z,80.54
2023-02-09T07:05:01.751Z,80.51
2023-02-09T07:07:29.483Z,80.68
2023-02-09T07:09:58.748Z,80.48
2023-02-09T07:12:26.603Z,80.36
2023-02-09T07:14:54.182Z,80.49
2023-02-09T07:17:21.780Z,80.68
2023-02-09T07:19:49.553Z,80.44
2023-02-09T07:22:17.283Z,80.38
2023-02-09T07:24:45.193Z,79.59
2023-02-09T07:27:13.533Z,79.14
2023-02-09T07:29:41.327Z,79.21
2023-02-09T07:32:09.060Z,79.38
2023-02-09T07:34:37.518Z,79.20
2023-02-09T07:37:05.314Z,79.08
2023-02-09T07:39:34.233Z,79.49
2023-02-09T07:42:02.126Z,79.36
2023-02-09T07:44:47.203Z,79.01
2023-02-09T07:47:14.972Z,78.39
2023-02-09T07:49:42.859Z,79.14
2023-02-09T07:52:10.871Z,79.07
2023-02-09T07:54:38.705Z,78.81
2023-02-09T07:57:06.358Z,79.02
2023-02-09T07:59:34.707Z,78.62
2023-02-09T08:02:02.595Z,78.58
2023-02-09T08:04:31.321Z,78.10
2023-02-09T08:06:59.222Z,76.91
2023-02-09T08:09:27.267Z,77.07
2023-02-09T08:11:57.398Z,77.29
2023-02-09T08:14:30.530Z,77.18
2023-02-09T08:17:19.956Z,76.88
2023-02-09T08:19:51.824Z,77.22
2023-02-09T08:22:20.165Z,76.97
2023-02-09T08:24:49.675Z,76.30
2023-02-09T08:27:17.535Z,76.60
2023-02-09T08:29:46.943Z,77.07
2023-02-09T08:32:20.676Z,75.90
2023-02-09T08:34:48.628Z,75.83
2023-02-09T08:37:16.554Z,76.20
2023-02-09T08:39:46.553Z,75.65
2023-02-09T08:42:14.732Z,75.03
2023-02-09T08:44:43.338Z,74.81
2023-02-09T08:47:12.847Z,74.36
2023-02-09T08:49:41.978Z,75.12
2023-02-09T08:52:12.021Z,75.32
2023-02-09T08:54:41.101Z,75.35
2023-02-09T08:57:09.626Z,75.66
2023-02-09T08:59:38.631Z,75.12
2023-02-09T09:02:07.372Z,74.28
2023-02-09T09:04:35.542Z,74.60
2023-02-09T09:07:03.685Z,73.99
2023-02-09T09:09:31.803Z,74.16
2023-02-09T09:12:00.402Z,73.77
2023-02-09T09:17:14.154Z,72.79
2023-02-09T09:19:42.227Z,72.89
2023-02-09T09:22:10.500Z,72.40
2023-02-09T09:24:41.067Z,72.21
2023-02-09T09:27:09.476Z,72.37
2023-02-09T09:29:40.230Z,71.16
2023-02-09T09:32:10.681Z,70.67
2023-02-09T09:34:41.613Z,70.22
2023-02-09T09:37:15.557Z,69.89
2023-02-09T09:39:43.820Z,69.34
2023-02-09T09:45:30.174Z,68.72
2023-02-09T09:47:58.274Z,66.29
2023-02-09T09:50:28.844Z,66.21
2023-02-09T09:53:28.961Z,65.10
2023-02-09T09:56:04.305Z,65.08
2023-02-09T09:58:33.571Z,64.41
2023-02-09T10:01:04.246Z,64.42
2023-02-09T10:03:33.037Z,63.69
2023-02-09T10:06:02.286Z,64.42
2023-02-09T10:08:39.892Z,62.92
2023-02-09T10:11:14.779Z,64.68
2023-02-09T10:13:53.489Z,64.77
2023-02-09T10:16:34.698Z,65.87
2023-02-09T10:19:04.043Z,65.50
2023-02-09T10:21:34.739Z,65.05
2023-02-09T10:24:02.394Z,66.11
2023-02-09T10:26:34.747Z,65.54
2023-02-09T10:29:12.469Z,65.94
2023-02-09T10:31:48.447Z,65.70
2023-02-09T10:34:18.353Z,65.41
2023-02-09T10:36:53.618Z,65.53
2023-02-09T10:39:33.186Z,65.21
2023-02-09T10:42:27.693Z,64.88
2023-02-09T10:44:58.576Z,64.05
2023-02-09T10:47:27.770Z,63.84
2023-02-09T10:50:05.745Z,64.32
2023-02-09T10:52:35.818Z,63.74
2023-02-09T10:55:16.536Z,62.41
2023-02-09T10:57:44.470Z,62.33
2023-02-09T11:00:15.653Z,62.55
2023-02-09T11:02:53.389Z,62.83
2023-02-09T11:05:21.542Z,63.65
2023-02-09T11:08:01.708Z,64.41
2023-02-09T11:10:30.612Z,64.58
2023-02-09T11:13:00.317Z,63.17
2023-02-09T11:15:30.764Z,62.72
2023-02-09T11:18:20.683Z,62.81
2023-02-09T11:20:59.066Z,63.78
2023-02-09T11:23:44.770Z,63.07
2023-02-09T11:26:16.060Z,63.76
2023-02-09T11:29:18.772Z,63.30
2023-02-09T11:32:07.313Z,62.97
2023-02-09T11:35:13.118Z,62.33
2023-02-09T11:37:50.251Z,62.63
2023-02-09T11:40:43.213Z,62.75
2023-02-09T11:43:11.394Z,62.64
2023-02-09T11:46:11.379Z,62.88
2023-02-09T11:48:47.146Z,62.29
2023-02-09T11:51:17.773Z,62.15
2023-02-09T11:53:54.120Z,61.66
2023-02-09T11:56:23.658Z,62.64
2023-02-09T11:58:57.481Z,62.43
2023-02-09T12:02:05.154Z,61.11
2023-02-09T12:04:42.403Z,61.89
2023-02-09T12:07:22.021Z,62.81
2023-02-09T12:10:30.334Z,61.81
2023-02-09T12:13:13.178Z,62.24
2023-02-09T12:15:51.327Z,61.51
2023-02-09T12:18:26.935Z,60.93
2023-02-09T12:20:56.565Z,61.42
2023-02-09T12:23:33.515Z,60.81
2023-02-09T12:26:12.240Z,60.35
2023-02-09T12:28:44.864Z,60.10
2023-02-09T12:31:21.236Z,59.67
2023-02-09T12:33:49.071Z,59.59
2023-02-09T12:36:16.828Z,59.54
2023-02-09T12:39:07.377Z,59.69
2023-02-09T12:41:40.907Z,59.01
2023-02-09T12:44:10.504Z,59.23
2023-02-09T12:46:45.432Z,58.81
2023-02-09T12:49:13.952Z,57.39
2023-02-09T12:51:50.817Z,58.71
2023-02-09T12:54:42.727Z,58.08
2023-02-09T12:57:17.307Z,57.78
2023-02-09T12:59:55.518Z,57.63
2023-02-09T13:02:50.496Z,58.45
2023-02-09T13:05:29.184Z,58.96
2023-02-09T13:07:59.833Z,58.82
2023-02-09T13:10:51.047Z,56.87
2023-02-09T13:13:36.901Z,57.26
2023-02-09T13:16:04.638Z,58.11
2023-02-09T13:19:09.390Z,57.79
2023-02-09T13:21:59.666Z,56.56
2023-02-09T13:25:08.603Z,56.56
2023-02-09T13:27:46.562Z,54.84
2023-02-09T13:30:31.216Z,55.89
2023-02-09T13:33:25.009Z,56.09
2023-02-09T13:36:09.173Z,55.74
2023-02-09T13:38:43.900Z,55.76
2023-02-09T13:41:26.180Z,56.97
2023-02-09T13:43:54.174Z,56.66
2023-02-09T13:46:27.439Z,57.19
2023-02-09T13:48:55.684Z,56.69
2023-02-09T13:51:23.743Z,56.93
2023-02-09T13:54:01.212Z,56.94
2023-02-09T13:56:30.124Z,57.08
2023-02-09T13:58:57.779Z,56.37
2023-02-09T14:01:33.629Z,56.55
2023-02-09T14:04:15.784Z,58.14
2023-02-09T14:06:48.868Z,58.96
2023-02-09T14:09:20.598Z,58.77
2023-02-09T14:11:51.147Z,60.05
2023-02-09T14:14:54.468Z,61.93
2023-02-09T14:17:27.507Z,62.29
2023-02-09T14:19:56.434Z,64.54
2023-02-09T14:22:34.320Z,64.46
2023-02-09T14:25:15.216Z,64.44
2023-02-09T14:27:46.563Z,65.41
2023-02-09T14:30:27.790Z,65.51
2023-02-09T14:32:57.112Z,66.82
2023-02-09T14:35:29.463Z,67.00
2023-02-09T14:37:59.236Z,66.85
2023-02-09T14:40:26.745Z,66.90
2023-02-09T14:43:12.956Z,68.00
2023-02-09T14:45:48.393Z,69.13
2023-02-09T14:48:18.078Z,69.45
2023-02-09T14:50:46.851Z,68.85
2023-02-09T14:53:15.614Z,69.70
2023-02-09T14:55:44.827Z,69.87
2023-02-09T14:58:22.549Z,69.18
2023-02-09T15:00:51.207Z,68.81
2023-02-09T15:03:18.941Z,70.00
2023-02-09T15:05:51.364Z,69.65
2023-02-09T15:08:20.883Z,68.97
2023-02-09T15:10:53.748Z,68.43
2023-02-09T15:13:21.727Z,68.37
2023-02-09T15:15:53.668Z,68.42
2023-02-09T15:18:23.448Z,68.58
2023-02-09T15:20:51.092Z,68.94
2023-02-09T15:23:18.996Z,69.07
2023-02-09T15:25:47.046Z,69.37
2023-02-09T15:28:20.137Z,69.51
2023-02-09T15:30:48.296Z,69.38
2023-02-09T15:33:16.143Z,69.46
2023-02-09T15:35:44.830Z,69.54
2023-02-09T15:38:14.129Z,69.92
2023-02-09T15:41:02.125Z,70.50
2023-02-09T15:43:48.387Z,70.25
2023-02-09T15:46:34.708Z,70.28
2023-02-09T15:49:02.477Z,70.43
2023-02-09T15:51:34.101Z,70.44
2023-02-09T15:54:08.057Z,70.67
2023-02-09T15:56:38.702Z,70.32
2023-02-09T15:59:06.469Z,70.33
2023-02-09T16:01:34.730Z,70.36
2023-02-09T16:04:14.036Z,71.06
2023-02-09T16:06:49.958Z,70.80
2023-02-09T16:09:26.974Z,70.74
2023-02-09T16:11:57.453Z,70.79
2023-02-09T16:14:26.850Z,71.03
2023-02-09T16:16:54.673Z,70.96
2023-02-09T16:19:22.456Z,71.13
2023-02-09T16:21:52.032Z,70.98
2023-02-09T16:24:37.262Z,71.08
2023-02-09T16:27:13.523Z,71.14
2023-02-09T16:29:41.145Z,71.15
2023-02-09T16:32:19.582Z,71.53
2023-02-09T16:34:47.319Z,71.05
2023-02-09T16:37:16.271Z,70.75
2023-02-09T16:39:44.376Z,71.03
2023-02-09T16:42:12.909Z,71.37
2023-02-09T16:44:41.877Z,71.40
2023-02-09T16:47:23.762Z,71.34
2023-02-09T16:49:58.430Z,71.27
2023-02-09T16:52:26.413Z,71.61
2023-02-09T16:54:56.407Z,71.35
2023-02-09T16:57:24.797Z,71.67
2023-02-09T16:59:52.789Z,72.22
2023-02-09T17:02:40.940Z,71.99
2023-02-09T17:05:25.980Z,71.65
2023-02-09T17:08:00.937Z,71.49
2023-02-09T17:10:30.932Z,70.82
2023-02-09T17:12:59.279Z,71.43
2023-02-09T17:15:30.982Z,71.49
2023-02-09T17:18:02.713Z,71.25
2023-02-09T17:20:36.238Z,71.89
2023-02-09T17:23:03.898Z,71.57
2023-02-09T17:25:32.160Z,71.54
2023-02-09T17:28:00.163Z,71.47
2023-02-09T17:30:27.792Z,71.64
2023-02-09T17:32:59.806Z,71.21
2023-02-09T17:35:53.097Z,71.06
2023-02-09T17:38:24.453Z,70.92
2023-02-09T17:40:53.444Z,70.73
2023-02-09T17:43:21.087Z,70.81
2023-02-09T17:45:51.388Z,70.78
2023-02-09T17:48:20.897Z,70.29
2023-02-09T17:50:58.003Z,70.48
2023-02-09T17:53:33.991Z,69.87
2023-02-09T17:56:04.444Z,69.85
2023-02-09T17:58:33.425Z,70.00
2023-02-09T18:01:02.676Z,70.38
2023-02-09T18:03:30.630Z,70.34
2023-02-09T18:06:01.947Z,70.33
2023-02-09T18:08:31.655Z,70.78
2023-02-09T18:11:00.203Z,71.49
2023-02-09T18:13:30.097Z,70.84
2023-02-09T18:16:04.064Z,70.85
2023-02-09T18:18:33.330Z,70.78
2023-02-09T18:21:02.256Z,70.56
2023-02-09T18:23:32.993Z,70.52
2023-02-09T18:26:04.707Z,71.16
2023-02-09T18:28:35.775Z,71.69
2023-02-09T18:31:07.463Z,71.90
2023-02-09T18:33:35.935Z,71.52
2023-02-09T18:36:06.183Z,71.18
2023-02-09T18:38:37.470Z,70.79
2023-02-09T18:41:13.484Z,71.26
2023-02-09T18:43:41.468Z,71.42
2023-02-09T18:46:16.128Z,71.31
2023-02-09T18:48:44.812Z,71.15
2023-02-09T18:51:22.669Z,72.15
2023-02-09T18:53:51.591Z,71.57
2023-02-09T18:56:20.942Z,71.49
2023-02-09T18:58:50.610Z,71.45
2023-02-09T19:01:26.966Z,71.71
2023-02-09T19:03:59.531Z,72.26
2023-02-09T19:06:28.999Z,73.11
2023-02-09T19:08:58.458Z,72.71
2023-02-09T19:11:28.675Z,71.33
2023-02-09T19:14:15.916Z,71.70
2023-02-09T19:16:47.046Z,71.83
2023-02-09T19:19:16.346Z,72.14
2023-02-09T19:21:44.480Z,72.59
2023-02-09T19:24:12.867Z,72.99
2023-02-09T19:26:41.549Z,72.49
2023-02-09T19:29:10.886Z,72.24
2023-02-09T19:31:42.642Z,72.02
2023-02-09T19:34:13.293Z,71.93
2023-02-09T19:36:44.720Z,71.83
2023-02-09T19:39:14.170Z,70.92
2023-02-09T19:41:44.736Z,70.61
2023-02-09T19:44:12.896Z,71.15
2023-02-09T19:46:44.626Z,71.91
2023-02-09T19:49:16.172Z,71.88
2023-02-09T19:51:45.732Z,71.90
2023-02-09T19:54:14.517Z,71.93
2023-02-09T19:56:45.558Z,72.08
2023-02-09T19:59:16.194Z,72.25
2023-02-09T20:01:45.749Z,72.47
2023-02-09T20:04:15.262Z,72.84
2023-02-09T20:06:43.913Z,72.74
2023-02-09T20:09:13.409Z,72.61
2023-02-09T20:11:44.315Z,72.62
2023-02-09T20:14:22.399Z,73.18
2023-02-09T20:16:56.952Z,73.25
2023-02-09T20:19:26.197Z,74.40
2023-02-09T20:21:56.248Z,73.91
2023-02-09T20:24:25.655Z,73.33
2023-02-09T20:26:53.755Z,73.29
2023-02-09T20:29:23.197Z,72.99
2023-02-09T20:31:52.255Z,73.31
2023-02-09T20:34:20.590Z,73.16
2023-02-09T20:36:49.401Z,73.39
2023-02-09T20:39:18.291Z,73.43
2023-02-09T20:42:05.694Z,73.11
2023-02-09T20:44:53.083Z,72.82
2023-02-09T20:47:20.962Z,72.79
2023-02-09T20:49:49.379Z,72.46
2023-02-09T20:52:19.664Z,72.81
2023-02-09T20:54:49.750Z,72.67
2023-02-09T20:57:20.723Z,72.95
2023-02-09T20:59:48.509Z,73.22
2023-02-09T21:02:17.106Z,73.05
2023-02-09T21:04:45.233Z,73.85
2023-02-09T21:07:14.766Z,73.39
2023-02-09T21:09:45.621Z,73.40
2023-02-09T21:12:24.922Z,73.42
2023-02-09T21:14:53.777Z,72.97
2023-02-09T21:17:22.844Z,73.57
2023-02-09T21:19:51.065Z,73.47
2023-02-09T21:22:18.957Z,73.53
2023-02-09T21:24:47.840Z,73.67
2023-02-09T21:27:15.412Z,73.18
2023-02-09T21:29:43.098Z,73.27
2023-02-09T21:32:10.743Z,73.05
2023-02-09T21:34:38.577Z,72.83
2023-02-09T21:37:10.270Z,73.06
2023-02-09T21:39:40.092Z,72.81
2023-02-09T21:42:28.907Z,72.83
2023-02-09T21:44:57.103Z,73.05
2023-02-09T21:47:34.782Z,72.75
2023-02-09T21:50:02.918Z,72.82
2023-02-09T21:52:31.762Z,71.90
2023-02-09T21:54:59.751Z,71.31
2023-02-09T21:57:28.109Z,71.69
2023-02-09T21:59:56.264Z,71.28
2023-02-09T22:02:24.255Z,70.94
2023-02-09T22:04:52.790Z,70.72
2023-02-09T22:07:20.413Z,71.27
2023-02-09T22:09:50.249Z,71.11
2023-02-09T22:12:17.837Z,71.87
2023-02-09T22:14:45.482Z,71.81
2023-02-09T22:17:13.024Z,71.76
2023-02-09T22:19:40.745Z,71.65
2023-02-09T22:22:09.465Z,71.95
2023-02-09T22:24:37.418Z,71.80
2023-02-09T22:27:05.545Z,71.68
2023-02-09T22:29:34.568Z,72.08
2023-02-09T22:32:02.247Z,72.13
2023-02-09T22:34:30.029Z,71.99
2023-02-09T22:36:57.643Z,72.17
2023-02-09T22:39:26.029Z,72.42
2023-02-09T22:41:59.455Z,72.32
2023-02-09T22:44:28.227Z,72.12
2023-02-09T22:46:56.897Z,72.46
2023-02-09T22:49:25.224Z,72.51
2023-02-09T22:51:53.238Z,72.09
2023-02-09T22:54:21.384Z,72.40
2023-02-09T22:56:49.052Z,72.38
2023-02-09T22:59:16.671Z,72.15
2023-02-09T23:01:44.574Z,72.27
2023-02-09T23:04:12.809Z,72.94
2023-02-09T23:06:40.766Z,72.48
2023-02-09T23:09:08.905Z,72.40
2023-02-09T23:11:36.652Z,72.78
2023-02-09T23:14:10.224Z,72.83
2023-02-09T23:16:39.697Z,72.47
2023-02-09T23:19:08.563Z,72.78
2023-02-09T23:21:38.015Z,73.07
2023-02-09T23:24:10.271Z,73.10
2023-02-09T23:26:37.934Z,72.87
2023-02-09T23:29:07.133Z,73.03
2023-02-09T23:31:35.894Z,72.99
2023-02-09T23:34:03.621Z,73.34
2023-02-09T23:36:32.364Z,73.09
2023-02-09T23:39:04.766Z,72.86
2023-02-09T23:41:36.494Z,72.91
2023-02-09T23:44:07.751Z,72.55
2023-02-09T23:46:39.229Z,72.42
2023-02-09T23:49:06.938Z,72.67
2023-02-09T23:51:37.020Z,72.80
2023-02-09T23:54:07.075Z,72.87
2023-02-09T23:56:42.287Z,73.03
2023-02-09T23:59:13.013Z,73.05
